Главная страница
METAR-TAF:

METAR-TAF

Аэропорты :

Дакар, Сенегал

широта: 14-44N, долгота: 017-30W, высота над уровнем моря: 27 м

Текущие метеонаблюдения

Эта сводка был подготовлена 1 час и 24 минут назад, в 11:00 UTC
Ветер 10 Узел от северо-восточный
Температура 21°C
Влажность 46%
Давление 1014 hPa
Видимость: 3000 м
пыль, взвешенная над обширной территорией

METAR: GOOY 221100Z 04010KT 3000 DU NSC 21/09 Q1014

Время: 12:24 (12:24 UTC)

Прогноз

Эта сводка был подготовлена 54 минут назад, в 11:30 UTC
Прогноз действительный с 22-го 12 UTC до 23-го 18 UTC
Ветер 12 Узел от северо-северо-восточный
Видимость: 5000 м
пыль, взвешенная над обширной территорией

TAF: GOOY 221130Z 2212/2318 03012KT 5000 DU NSC

Метеонаблюдения и прогнозы для более 4000 аэропортов (сводки METAR и TAF).

Имеющиеся станции представлены на карте желтыми и красными точками.

Чтобы увидеть название станции, наведите на нее мышь.

Затем щелкните, чтобы увидеть метеонаблюдения и метеопрогнозы.

Управление картой: чтобы увеличить масштаб, щелкните зеленые кнопки с черным крестиком; чтобы уменьшить масштаб, щелкните зеленую кнопку с тире; для просмотра соседних карт щелкайте зеленые стрелки.


METAR-TAF: